sensor_id;sensor_type;location;lat;lon;timestamp;noise_LAeq;noise_LA_min;noise_LA_max;noise_LA01;noise_LA95
76217;Laerm;65010;50.190;18.930;2023-01-23T00:09:08;40.74;37.64;62.50;;
76217;Laerm;65010;50.190;18.930;2023-01-23T00:12:15;41.01;38.09;62.35;;
76217;Laerm;65010;50.190;18.930;2023-01-23T00:42:28;42.08;38.58;59.45;;
76217;Laerm;65010;50.190;18.930;2023-01-23T00:45:36;41.16;38.79;61.19;;
76217;Laerm;65010;50.190;18.930;2023-01-23T00:48:41;40.98;38.18;63.49;;
76217;Laerm;65010;50.190;18.930;2023-01-23T00:51:48;40.74;37.94;63.90;;
76217;Laerm;65010;50.190;18.930;2023-01-23T00:54:56;41.57;38.18;67.13;;
76217;Laerm;65010;50.190;18.930;2023-01-23T00:58:05;40.43;36.15;62.35;;
76217;Laerm;65010;50.190;18.930;2023-01-23T01:01:13;39.69;36.33;63.06;;
76217;Laerm;65010;50.190;18.930;2023-01-23T01:04:20;41.20;37.92;63.75;;
76217;Laerm;65010;50.190;18.930;2023-01-23T01:07:26;41.61;38.96;62.29;;
76217;Laerm;65010;50.190;18.930;2023-01-23T01:10:33;41.41;38.92;61.91;;
76217;Laerm;65010;50.190;18.930;2023-01-23T01:13:43;41.52;38.91;64.00;;
76217;Laerm;65010;50.190;18.930;2023-01-23T01:16:50;44.80;38.73;63.10;;
76217;Laerm;65010;50.190;18.930;2023-01-23T01:19:56;41.99;39.68;63.47;;
76217;Laerm;65010;50.190;18.930;2023-01-23T01:23:03;41.52;39.31;57.55;;
76217;Laerm;65010;50.190;18.930;2023-01-23T01:26:10;42.00;39.36;63.93;;
76217;Laerm;65010;50.190;18.930;2023-01-23T01:29:20;41.72;39.37;61.29;;
76217;Laerm;65010;50.190;18.930;2023-01-23T01:32:26;40.60;36.99;63.49;;
76217;Laerm;65010;50.190;18.930;2023-01-23T01:35:49;44.61;36.17;62.74;;
76217;Laerm;65010;50.190;18.930;2023-01-23T01:38:57;38.71;35.88;61.83;;
76217;Laerm;65010;50.190;18.930;2023-01-23T01:42:04;39.57;35.83;61.17;;
76217;Laerm;65010;50.190;18.930;2023-01-23T01:46:03;41.42;37.73;64.32;;
76217;Laerm;65010;50.190;18.930;2023-01-23T01:49:17;42.18;39.01;63.97;;
76217;Laerm;65010;50.190;18.930;2023-01-23T01:52:25;41.18;38.70;59.78;;
76217;Laerm;65010;50.190;18.930;2023-01-23T01:55:36;40.84;38.36;59.43;;
76217;Laerm;65010;50.190;18.930;2023-01-23T01:58:48;41.27;38.18;60.67;;
76217;Laerm;65010;50.190;18.930;2023-01-23T02:02:08;40.99;38.34;62.88;;
76217;Laerm;65010;50.190;18.930;2023-01-23T02:05:20;41.14;38.54;59.00;;
76217;Laerm;65010;50.190;18.930;2023-01-23T02:08:36;41.29;38.71;60.21;;
76217;Laerm;65010;50.190;18.930;2023-01-23T02:11:45;41.45;38.89;59.51;;
76217;Laerm;65010;50.190;18.930;2023-01-23T02:14:55;41.61;38.70;63.00;;
76217;Laerm;65010;50.190;18.930;2023-01-23T02:18:03;41.75;39.00;63.81;;
76217;Laerm;65010;50.190;18.930;2023-01-23T02:21:14;44.20;38.74;64.81;;
76217;Laerm;65010;50.190;18.930;2023-01-23T02:24:33;41.78;38.56;63.54;;
76217;Laerm;65010;50.190;18.930;2023-01-23T02:27:44;41.05;38.25;61.51;;
76217;Laerm;65010;50.190;18.930;2023-01-23T02:30:50;46.90;38.35;68.94;;
76217;Laerm;65010;50.190;18.930;2023-01-23T02:33:59;41.56;38.57;62.97;;
76217;Laerm;65010;50.190;18.930;2023-01-23T02:37:08;41.41;38.79;62.04;;
76217;Laerm;65010;50.190;18.930;2023-01-23T02:40:15;41.18;38.81;60.69;;
76217;Laerm;65010;50.190;18.930;2023-01-23T02:43:33;41.56;38.67;64.60;;
76217;Laerm;65010;50.190;18.930;2023-01-23T02:46:45;41.47;38.94;62.35;;
76217;Laerm;65010;50.190;18.930;2023-01-23T02:49:51;41.83;38.93;62.12;;
76217;Laerm;65010;50.190;18.930;2023-01-23T02:52:59;42.38;39.22;64.62;;
76217;Laerm;65010;50.190;18.930;2023-01-23T02:56:06;41.83;35.02;65.21;;
76217;Laerm;65010;50.190;18.930;2023-01-23T02:59:15;40.09;35.24;64.61;;
76217;Laerm;65010;50.190;18.930;2023-01-23T03:02:34;39.50;36.35;61.72;;
76217;Laerm;65010;50.190;18.930;2023-01-23T03:05:41;40.42;37.70;61.37;;
76217;Laerm;65010;50.190;18.930;2023-01-23T03:08:47;40.86;37.80;61.26;;
76217;Laerm;65010;50.190;18.930;2023-01-23T03:11:54;40.79;38.09;63.45;;
76217;Laerm;65010;50.190;18.930;2023-01-23T03:15:04;40.87;37.69;64.17;;
76217;Laerm;65010;50.190;18.930;2023-01-23T03:18:11;40.77;37.76;61.52;;
76217;Laerm;65010;50.190;18.930;2023-01-23T03:21:17;41.22;38.07;63.63;;
76217;Laerm;65010;50.190;18.930;2023-01-23T03:24:24;40.63;38.36;57.46;;
76217;Laerm;65010;50.190;18.930;2023-01-23T03:27:30;41.01;37.99;63.79;;
76217;Laerm;65010;50.190;18.930;2023-01-23T03:30:43;41.12;38.15;65.48;;
76217;Laerm;65010;50.190;18.930;2023-01-23T03:33:46;40.70;38.20;58.57;;
76217;Laerm;65010;50.190;18.930;2023-01-23T03:36:53;41.10;38.22;64.91;;
76217;Laerm;65010;50.190;18.930;2023-01-23T03:40:00;44.36;38.49;66.23;;
76217;Laerm;65010;50.190;18.930;2023-01-23T03:43:19;41.55;38.18;62.64;;
76217;Laerm;65010;50.190;18.930;2023-01-23T03:46:28;41.10;37.97;63.97;;
76217;Laerm;65010;50.190;18.930;2023-01-23T03:49:34;40.83;38.32;61.91;;
76217;Laerm;65010;50.190;18.930;2023-01-23T03:52:40;41.39;38.40;64.48;;
76217;Laerm;65010;50.190;18.930;2023-01-23T03:55:47;41.40;38.25;61.97;;
76217;Laerm;65010;50.190;18.930;2023-01-23T03:58:54;41.36;38.83;61.39;;
76217;Laerm;65010;50.190;18.930;2023-01-23T04:02:04;41.34;38.62;61.01;;
76217;Laerm;65010;50.190;18.930;2023-01-23T04:05:11;41.18;38.28;61.59;;
76217;Laerm;65010;50.190;18.930;2023-01-23T04:08:17;42.15;38.53;60.39;;
76217;Laerm;65010;50.190;18.930;2023-01-23T04:11:25;42.07;38.82;65.69;;
76217;Laerm;65010;50.190;18.930;2023-01-23T04:14:32;41.49;38.88;59.72;;
76217;Laerm;65010;50.190;18.930;2023-01-23T04:17:42;41.87;38.78;65.85;;
76217;Laerm;65010;50.190;18.930;2023-01-23T04:20:49;41.61;38.60;62.02;;
76217;Laerm;65010;50.190;18.930;2023-01-23T04:23:54;40.11;36.01;65.28;;
76217;Laerm;65010;50.190;18.930;2023-01-23T04:27:01;40.47;36.92;63.99;;
76217;Laerm;65010;50.190;18.930;2023-01-23T04:30:10;41.57;39.00;61.54;;
76217;Laerm;65010;50.190;18.930;2023-01-23T04:33:21;44.52;39.15;64.53;;
76217;Laerm;65010;50.190;18.930;2023-01-23T04:36:27;46.67;38.89;64.88;;
76217;Laerm;65010;50.190;18.930;2023-01-23T04:39:33;41.11;37.19;56.85;;
76217;Laerm;65010;50.190;18.930;2023-01-23T04:46:31;45.57;37.91;65.47;;
76217;Laerm;65010;50.190;18.930;2023-01-23T05:01:23;43.82;38.77;64.21;;
76217;Laerm;65010;50.190;18.930;2023-01-23T05:04:34;45.05;39.41;62.58;;
76217;Laerm;65010;50.190;18.930;2023-01-23T05:07:40;42.11;39.32;65.69;;
76217;Laerm;65010;50.190;18.930;2023-01-23T05:10:50;41.63;39.16;61.89;;
76217;Laerm;65010;50.190;18.930;2023-01-23T05:13:56;46.99;39.23;62.28;;
76217;Laerm;65010;50.190;18.930;2023-01-23T05:17:08;46.84;38.86;62.74;;
76217;Laerm;65010;50.190;18.930;2023-01-23T05:31:57;47.67;39.55;66.21;;
76217;Laerm;65010;50.190;18.930;2023-01-23T05:35:16;45.94;39.56;63.20;;
76217;Laerm;65010;50.190;18.930;2023-01-23T05:38:23;48.07;35.22;65.67;;
76217;Laerm;65010;50.190;18.930;2023-01-23T05:41:29;39.79;35.86;68.00;;
76217;Laerm;65010;50.190;18.930;2023-01-23T05:44:54;44.56;36.31;62.14;;
76217;Laerm;65010;50.190;18.930;2023-01-23T05:48:06;45.75;38.07;63.63;;
76217;Laerm;65010;50.190;18.930;2023-01-23T05:51:15;48.20;38.38;63.76;;
76217;Laerm;65010;50.190;18.930;2023-01-23T05:54:23;46.62;38.04;67.13;;
76217;Laerm;65010;50.190;18.930;2023-01-23T05:57:29;46.44;38.28;66.10;;
76217;Laerm;65010;50.190;18.930;2023-01-23T06:04:47;49.34;38.27;68.64;;
76217;Laerm;65010;50.190;18.930;2023-01-23T06:08:08;44.27;38.53;66.58;;
76217;Laerm;65010;50.190;18.930;2023-01-23T06:11:14;54.17;38.28;74.22;;
76217;Laerm;65010;50.190;18.930;2023-01-23T06:18:12;47.82;38.42;64.85;;
76217;Laerm;65010;50.190;18.930;2023-01-23T06:21:19;44.24;38.83;64.86;;
76217;Laerm;65010;50.190;18.930;2023-01-23T06:24:28;45.16;38.65;65.83;;
76217;Laerm;65010;50.190;18.930;2023-01-23T06:27:35;46.32;38.76;63.41;;
76217;Laerm;65010;50.190;18.930;2023-01-23T06:30:43;47.92;38.52;65.03;;
76217;Laerm;65010;50.190;18.930;2023-01-23T06:34:00;48.01;38.32;64.75;;
76217;Laerm;65010;50.190;18.930;2023-01-23T06:37:14;50.25;38.85;67.20;;
76217;Laerm;65010;50.190;18.930;2023-01-23T06:40:26;48.15;38.77;67.88;;
76217;Laerm;65010;50.190;18.930;2023-01-23T06:43:56;48.49;38.78;67.93;;
76217;Laerm;65010;50.190;18.930;2023-01-23T06:47:04;47.30;39.03;66.12;;
76217;Laerm;65010;50.190;18.930;2023-01-23T06:50:10;50.04;39.24;69.96;;
76217;Laerm;65010;50.190;18.930;2023-01-23T06:53:18;48.47;39.44;64.88;;
76217;Laerm;65010;50.190;18.930;2023-01-23T06:56:29;45.33;39.49;60.79;;
76217;Laerm;65010;50.190;18.930;2023-01-23T06:59:40;57.13;39.93;77.12;;
76217;Laerm;65010;50.190;18.930;2023-01-23T07:03:01;45.07;39.47;62.28;;
76217;Laerm;65010;50.190;18.930;2023-01-23T07:06:12;47.52;39.25;66.09;;
76217;Laerm;65010;50.190;18.930;2023-01-23T07:09:29;44.27;39.43;63.02;;
76217;Laerm;65010;50.190;18.930;2023-01-23T07:12:52;46.04;39.17;62.09;;
76217;Laerm;65010;50.190;18.930;2023-01-23T07:15:58;45.71;39.00;64.86;;
76217;Laerm;65010;50.190;18.930;2023-01-23T07:19:05;50.98;39.36;67.97;;
76217;Laerm;65010;50.190;18.930;2023-01-23T07:22:17;47.75;39.47;66.15;;
76217;Laerm;65010;50.190;18.930;2023-01-23T07:25:25;49.05;35.23;67.51;;
76217;Laerm;65010;50.190;18.930;2023-01-23T07:28:34;47.20;36.14;64.82;;
76217;Laerm;65010;50.190;18.930;2023-01-23T07:31:42;51.38;38.84;70.82;;
76217;Laerm;65010;50.190;18.930;2023-01-23T07:34:55;44.96;38.30;65.83;;
76217;Laerm;65010;50.190;18.930;2023-01-23T07:38:02;48.73;38.40;67.85;;
76217;Laerm;65010;50.190;18.930;2023-01-23T07:41:10;54.27;38.59;73.58;;
76217;Laerm;65010;50.190;18.930;2023-01-23T07:44:21;44.89;38.52;62.75;;
76217;Laerm;65010;50.190;18.930;2023-01-23T07:47:27;41.29;38.67;57.66;;
76217;Laerm;65010;50.190;18.930;2023-01-23T07:50:35;54.02;39.30;68.28;;
76217;Laerm;65010;50.190;18.930;2023-01-23T07:53:44;52.32;38.95;69.56;;
76217;Laerm;65010;50.190;18.930;2023-01-23T07:56:52;44.73;38.81;62.33;;
76217;Laerm;65010;50.190;18.930;2023-01-23T08:00:06;46.59;38.58;65.46;;
76217;Laerm;65010;50.190;18.930;2023-01-23T08:03:35;47.68;38.40;65.91;;
76217;Laerm;65010;50.190;18.930;2023-01-23T08:06:54;47.87;38.59;65.13;;
76217;Laerm;65010;50.190;18.930;2023-01-23T08:10:02;46.67;38.80;65.24;;
76217;Laerm;65010;50.190;18.930;2023-01-23T08:13:08;46.22;39.38;67.32;;
76217;Laerm;65010;50.190;18.930;2023-01-23T08:16:19;45.43;39.35;63.27;;
76217;Laerm;65010;50.190;18.930;2023-01-23T08:19:27;42.57;39.55;62.48;;
76217;Laerm;65010;50.190;18.930;2023-01-23T08:22:36;44.26;37.71;67.12;;
76217;Laerm;65010;50.190;18.930;2023-01-23T08:25:46;46.98;37.62;64.00;;
76217;Laerm;65010;50.190;18.930;2023-01-23T08:29:08;43.84;38.36;63.15;;
76217;Laerm;65010;50.190;18.930;2023-01-23T08:32:17;46.76;38.48;64.34;;
76217;Laerm;65010;50.190;18.930;2023-01-23T08:35:24;46.36;38.62;66.14;;
76217;Laerm;65010;50.190;18.930;2023-01-23T08:38:31;46.55;38.68;64.86;;
76217;Laerm;65010;50.190;18.930;2023-01-23T08:41:38;45.94;36.37;66.46;;
76217;Laerm;65010;50.190;18.930;2023-01-23T08:44:44;42.80;36.90;65.00;;
76217;Laerm;65010;50.190;18.930;2023-01-23T08:47:56;49.18;38.49;65.86;;
76217;Laerm;65010;50.190;18.930;2023-01-23T08:51:08;41.82;38.88;62.42;;
76217;Laerm;65010;50.190;18.930;2023-01-23T08:54:15;45.15;38.48;64.51;;
76217;Laerm;65010;50.190;18.930;2023-01-23T08:57:21;48.57;38.21;66.39;;
76217;Laerm;65010;50.190;18.930;2023-01-23T09:00:28;49.99;38.42;65.99;;
76217;Laerm;65010;50.190;18.930;2023-01-23T09:03:37;46.77;38.33;66.24;;
76217;Laerm;65010;50.190;18.930;2023-01-23T09:06:44;47.09;38.69;64.16;;
76217;Laerm;65010;50.190;18.930;2023-01-23T09:09:50;47.57;38.92;65.61;;
76217;Laerm;65010;50.190;18.930;2023-01-23T09:12:57;46.51;38.93;65.11;;
76217;Laerm;65010;50.190;18.930;2023-01-23T09:16:06;47.53;38.46;66.35;;
76217;Laerm;65010;50.190;18.930;2023-01-23T09:19:16;49.26;39.01;64.97;;
76217;Laerm;65010;50.190;18.930;2023-01-23T09:22:22;47.98;38.42;64.22;;
76217;Laerm;65010;50.190;18.930;2023-01-23T09:25:28;47.41;38.56;69.47;;
76217;Laerm;65010;50.190;18.930;2023-01-23T09:28:36;50.50;38.59;67.80;;
76217;Laerm;65010;50.190;18.930;2023-01-23T09:31:45;47.20;38.83;65.46;;
76217;Laerm;65010;50.190;18.930;2023-01-23T09:34:53;45.16;38.88;63.44;;
76217;Laerm;65010;50.190;18.930;2023-01-23T09:38:02;41.72;39.02;62.47;;
76217;Laerm;65010;50.190;18.930;2023-01-23T09:41:18;46.04;38.88;66.78;;
76217;Laerm;65010;50.190;18.930;2023-01-23T09:44:38;47.30;38.80;66.19;;
76217;Laerm;65010;50.190;18.930;2023-01-23T09:47:55;49.96;39.28;67.14;;
76217;Laerm;65010;50.190;18.930;2023-01-23T09:51:19;48.28;39.33;65.84;;
76217;Laerm;65010;50.190;18.930;2023-01-23T09:54:42;49.05;39.11;77.85;;
76217;Laerm;65010;50.190;18.930;2023-01-23T09:57:54;47.26;39.01;67.23;;
76217;Laerm;65010;50.190;18.930;2023-01-23T10:01:02;44.95;39.03;62.53;;
76217;Laerm;65010;50.190;18.930;2023-01-23T10:04:18;48.36;39.01;64.95;;
76217;Laerm;65010;50.190;18.930;2023-01-23T10:07:59;46.78;39.22;67.78;;
76217;Laerm;65010;50.190;18.930;2023-01-23T10:11:23;46.04;39.09;69.72;;
76217;Laerm;65010;50.190;18.930;2023-01-23T10:14:56;42.19;39.10;62.09;;
76217;Laerm;65010;50.190;18.930;2023-01-23T10:18:23;46.01;39.01;63.70;;
76217;Laerm;65010;50.190;18.930;2023-01-23T10:21:39;43.60;39.36;60.18;;
76217;Laerm;65010;50.190;18.930;2023-01-23T10:24:56;46.85;39.22;65.71;;
76217;Laerm;65010;50.190;18.930;2023-01-23T10:28:22;47.70;39.06;68.96;;
76217;Laerm;65010;50.190;18.930;2023-01-23T10:31:37;46.87;39.23;65.35;;
76217;Laerm;65010;50.190;18.930;2023-01-23T10:34:55;45.73;39.24;65.11;;
76217;Laerm;65010;50.190;18.930;2023-01-23T10:38:26;46.34;39.35;65.24;;
76217;Laerm;65010;50.190;18.930;2023-01-23T10:41:38;48.44;39.59;65.77;;
76217;Laerm;65010;50.190;18.930;2023-01-23T10:44:49;46.57;39.80;66.17;;
76217;Laerm;65010;50.190;18.930;2023-01-23T10:47:54;48.33;39.68;65.57;;
76217;Laerm;65010;50.190;18.930;2023-01-23T10:51:04;51.71;40.19;68.66;;
76217;Laerm;65010;50.190;18.930;2023-01-23T10:54:29;47.41;40.08;64.86;;
76217;Laerm;65010;50.190;18.930;2023-01-23T10:57:47;45.56;39.93;65.89;;
76217;Laerm;65010;50.190;18.930;2023-01-23T11:00:53;47.53;39.44;65.90;;
76217;Laerm;65010;50.190;18.930;2023-01-23T11:04:13;47.34;39.51;67.25;;
76217;Laerm;65010;50.190;18.930;2023-01-23T11:07:25;45.30;39.61;62.61;;
76217;Laerm;65010;50.190;18.930;2023-01-23T11:10:32;48.24;39.63;65.80;;
76217;Laerm;65010;50.190;18.930;2023-01-23T11:13:43;47.18;39.40;66.31;;
76217;Laerm;65010;50.190;18.930;2023-01-23T11:17:01;48.66;39.81;64.03;;
76217;Laerm;65010;50.190;18.930;2023-01-23T11:20:22;44.66;39.86;63.02;;
76217;Laerm;65010;50.190;18.930;2023-01-23T11:23:32;48.65;39.53;66.85;;
76217;Laerm;65010;50.190;18.930;2023-01-23T11:26:38;48.28;39.97;66.96;;
76217;Laerm;65010;50.190;18.930;2023-01-23T11:30:12;49.27;40.12;64.13;;
76217;Laerm;65010;50.190;18.930;2023-01-23T11:33:39;48.21;39.99;66.36;;
76217;Laerm;65010;50.190;18.930;2023-01-23T11:37:01;45.30;39.67;62.26;;
76217;Laerm;65010;50.190;18.930;2023-01-23T11:40:14;49.68;39.68;69.21;;
76217;Laerm;65010;50.190;18.930;2023-01-23T11:43:22;48.01;39.99;62.69;;
76217;Laerm;65010;50.190;18.930;2023-01-23T11:46:55;46.91;39.93;67.23;;
76217;Laerm;65010;50.190;18.930;2023-01-23T11:50:29;47.54;40.23;65.32;;
76217;Laerm;65010;50.190;18.930;2023-01-23T11:54:17;45.27;39.92;62.50;;
76217;Laerm;65010;50.190;18.930;2023-01-23T11:57:44;47.07;40.14;64.21;;
76217;Laerm;65010;50.190;18.930;2023-01-23T12:01:09;45.96;39.55;62.95;;
76217;Laerm;65010;50.190;18.930;2023-01-23T12:04:58;46.99;38.35;67.38;;
76217;Laerm;65010;50.190;18.930;2023-01-23T12:08:24;47.43;38.70;65.05;;
76217;Laerm;65010;50.190;18.930;2023-01-23T12:11:51;49.25;40.12;65.73;;
76217;Laerm;65010;50.190;18.930;2023-01-23T12:15:11;45.37;40.20;62.02;;
76217;Laerm;65010;50.190;18.930;2023-01-23T12:18:39;49.82;38.35;66.76;;
76217;Laerm;65010;50.190;18.930;2023-01-23T12:22:08;48.67;37.63;67.04;;
76217;Laerm;65010;50.190;18.930;2023-01-23T12:25:29;46.11;36.16;61.15;;
76217;Laerm;65010;50.190;18.930;2023-01-23T12:29:04;45.13;36.46;63.17;;
76217;Laerm;65010;50.190;18.930;2023-01-23T12:32:52;47.52;35.91;67.39;;
76217;Laerm;65010;50.190;18.930;2023-01-23T12:36:34;41.43;38.56;58.69;;
76217;Laerm;65010;50.190;18.930;2023-01-23T12:40:14;45.53;38.97;65.49;;
76217;Laerm;65010;50.190;18.930;2023-01-23T12:43:39;49.75;38.84;65.76;;
76217;Laerm;65010;50.190;18.930;2023-01-23T12:46:54;46.79;38.83;65.78;;
76217;Laerm;65010;50.190;18.930;2023-01-23T12:50:15;45.62;38.52;65.53;;
76217;Laerm;65010;50.190;18.930;2023-01-23T12:53:25;44.40;37.94;61.58;;
76217;Laerm;65010;50.190;18.930;2023-01-23T12:56:38;45.52;38.10;62.11;;
76217;Laerm;65010;50.190;18.930;2023-01-23T12:59:59;42.28;38.09;60.89;;
76217;Laerm;65010;50.190;18.930;2023-01-23T13:03:27;44.57;38.05;65.95;;
76217;Laerm;65010;50.190;18.930;2023-01-23T13:07:19;47.20;38.36;66.18;;
76217;Laerm;65010;50.190;18.930;2023-01-23T13:11:00;47.98;38.09;64.12;;
76217;Laerm;65010;50.190;18.930;2023-01-23T13:14:37;46.37;38.37;64.74;;
76217;Laerm;65010;50.190;18.930;2023-01-23T13:18:24;48.09;38.59;64.88;;
76217;Laerm;65010;50.190;18.930;2023-01-23T13:21:32;46.61;38.56;64.23;;
76217;Laerm;65010;50.190;18.930;2023-01-23T13:24:52;46.89;38.66;66.85;;
76217;Laerm;65010;50.190;18.930;2023-01-23T13:28:32;48.58;38.22;64.99;;
76217;Laerm;65010;50.190;18.930;2023-01-23T13:31:50;45.03;37.70;63.71;;
76217;Laerm;65010;50.190;18.930;2023-01-23T13:35:00;47.74;38.37;65.44;;
76217;Laerm;65010;50.190;18.930;2023-01-23T13:38:32;46.36;38.40;64.53;;
76217;Laerm;65010;50.190;18.930;2023-01-23T13:41:44;45.91;38.08;62.76;;
76217;Laerm;65010;50.190;18.930;2023-01-23T13:45:25;48.85;38.17;64.54;;
76217;Laerm;65010;50.190;18.930;2023-01-23T13:48:58;49.00;38.66;62.94;;
76217;Laerm;65010;50.190;18.930;2023-01-23T13:52:38;46.75;38.13;65.12;;
76217;Laerm;65010;50.190;18.930;2023-01-23T13:56:20;47.25;38.56;62.79;;
76217;Laerm;65010;50.190;18.930;2023-01-23T13:59:53;48.02;38.53;69.43;;
76217;Laerm;65010;50.190;18.930;2023-01-23T14:03:29;46.89;38.28;65.28;;
76217;Laerm;65010;50.190;18.930;2023-01-23T14:07:24;45.94;38.40;67.13;;
76217;Laerm;65010;50.190;18.930;2023-01-23T14:16:13;45.89;39.15;64.61;;
76217;Laerm;65010;50.190;18.930;2023-01-23T14:19:54;48.41;38.36;67.81;;
76217;Laerm;65010;50.190;18.930;2023-01-23T14:23:29;47.05;38.63;66.07;;
76217;Laerm;65010;50.190;18.930;2023-01-23T14:26:49;47.26;38.80;65.13;;
76217;Laerm;65010;50.190;18.930;2023-01-23T14:29:57;45.84;38.70;66.25;;
76217;Laerm;65010;50.190;18.930;2023-01-23T14:33:16;46.20;38.67;64.10;;
76217;Laerm;65010;50.190;18.930;2023-01-23T14:36:22;46.89;38.50;64.15;;
76217;Laerm;65010;50.190;18.930;2023-01-23T14:39:34;42.27;38.92;60.75;;
76217;Laerm;65010;50.190;18.930;2023-01-23T14:42:43;48.76;38.68;67.08;;
76217;Laerm;65010;50.190;18.930;2023-01-23T14:46:02;45.57;38.43;61.72;;
76217;Laerm;65010;50.190;18.930;2023-01-23T14:49:23;48.30;38.39;64.14;;
76217;Laerm;65010;50.190;18.930;2023-01-23T14:52:31;48.99;38.16;64.98;;
76217;Laerm;65010;50.190;18.930;2023-01-23T14:55:41;48.24;38.71;63.30;;
76217;Laerm;65010;50.190;18.930;2023-01-23T14:58:53;52.39;38.32;66.05;;
76217;Laerm;65010;50.190;18.930;2023-01-23T15:02:19;50.51;38.55;66.66;;
76217;Laerm;65010;50.190;18.930;2023-01-23T15:05:32;48.45;38.71;66.98;;
76217;Laerm;65010;50.190;18.930;2023-01-23T15:08:42;46.89;38.67;66.82;;
76217;Laerm;65010;50.190;18.930;2023-01-23T15:11:49;41.32;38.35;66.18;;
76217;Laerm;65010;50.190;18.930;2023-01-23T15:14:55;51.02;38.96;68.72;;
76217;Laerm;65010;50.190;18.930;2023-01-23T15:18:18;49.94;39.08;64.75;;
76217;Laerm;65010;50.190;18.930;2023-01-23T15:21:33;50.07;38.69;68.36;;
76217;Laerm;65010;50.190;18.930;2023-01-23T15:24:41;50.24;38.54;65.54;;
76217;Laerm;65010;50.190;18.930;2023-01-23T15:27:47;45.98;38.35;64.72;;
76217;Laerm;65010;50.190;18.930;2023-01-23T15:30:53;50.17;38.79;67.31;;
76217;Laerm;65010;50.190;18.930;2023-01-23T15:34:21;45.40;38.62;64.01;;
76217;Laerm;65010;50.190;18.930;2023-01-23T15:37:30;47.15;38.41;62.59;;
76217;Laerm;65010;50.190;18.930;2023-01-23T15:40:38;48.89;38.32;67.08;;
76217;Laerm;65010;50.190;18.930;2023-01-23T15:43:44;47.18;38.33;62.43;;
76217;Laerm;65010;50.190;18.930;2023-01-23T15:46:51;42.73;38.17;61.52;;
76217;Laerm;65010;50.190;18.930;2023-01-23T15:49:57;46.27;38.03;63.40;;
76217;Laerm;65010;50.190;18.930;2023-01-23T15:53:13;47.05;38.43;65.79;;
76217;Laerm;65010;50.190;18.930;2023-01-23T15:56:31;45.16;38.50;63.25;;
76217;Laerm;65010;50.190;18.930;2023-01-23T15:59:38;47.89;38.56;65.81;;
76217;Laerm;65010;50.190;18.930;2023-01-23T16:02:44;48.32;38.53;68.51;;
76217;Laerm;65010;50.190;18.930;2023-01-23T16:05:58;44.90;38.55;66.09;;
76217;Laerm;65010;50.190;18.930;2023-01-23T16:09:22;48.26;38.57;65.09;;
76217;Laerm;65010;50.190;18.930;2023-01-23T16:12:32;45.91;38.56;66.42;;
76217;Laerm;65010;50.190;18.930;2023-01-23T16:15:41;47.64;38.68;65.60;;
76217;Laerm;65010;50.190;18.930;2023-01-23T16:18:47;48.28;38.46;65.31;;
76217;Laerm;65010;50.190;18.930;2023-01-23T16:21:53;49.71;38.09;65.28;;
76217;Laerm;65010;50.190;18.930;2023-01-23T16:25:17;44.81;37.39;64.97;;
76217;Laerm;65010;50.190;18.930;2023-01-23T16:28:45;44.43;38.43;64.94;;
76217;Laerm;65010;50.190;18.930;2023-01-23T16:31:51;47.29;38.30;65.84;;
76217;Laerm;65010;50.190;18.930;2023-01-23T16:34:58;48.30;38.72;65.64;;
76217;Laerm;65010;50.190;18.930;2023-01-23T16:38:04;45.29;38.75;67.25;;
76217;Laerm;65010;50.190;18.930;2023-01-23T16:41:14;48.57;37.21;63.77;;
76217;Laerm;65010;50.190;18.930;2023-01-23T16:44:22;49.11;37.77;64.97;;
76217;Laerm;65010;50.190;18.930;2023-01-23T16:47:30;48.03;38.81;64.05;;
76217;Laerm;65010;50.190;18.930;2023-01-23T16:50:42;48.78;39.35;65.88;;
76217;Laerm;65010;50.190;18.930;2023-01-23T16:53:57;45.50;39.64;62.46;;
76217;Laerm;65010;50.190;18.930;2023-01-23T16:57:22;46.07;39.47;65.74;;
76217;Laerm;65010;50.190;18.930;2023-01-23T17:00:30;45.73;39.21;64.07;;
76217;Laerm;65010;50.190;18.930;2023-01-23T17:03:39;45.71;38.94;62.94;;
76217;Laerm;65010;50.190;18.930;2023-01-23T17:06:48;45.61;39.22;63.34;;
76217;Laerm;65010;50.190;18.930;2023-01-23T17:09:53;44.31;39.55;63.91;;
76217;Laerm;65010;50.190;18.930;2023-01-23T17:13:03;45.66;38.53;62.60;;
76217;Laerm;65010;50.190;18.930;2023-01-23T17:16:09;46.17;38.49;64.44;;
76217;Laerm;65010;50.190;18.930;2023-01-23T17:19:34;50.66;38.57;67.30;;
76217;Laerm;65010;50.190;18.930;2023-01-23T17:22:46;45.43;38.47;62.01;;
76217;Laerm;65010;50.190;18.930;2023-01-23T17:25:54;47.79;38.72;66.98;;
76217;Laerm;65010;50.190;18.930;2023-01-23T17:29:05;46.50;38.67;65.94;;
76217;Laerm;65010;50.190;18.930;2023-01-23T17:32:30;50.96;39.05;68.29;;
76217;Laerm;65010;50.190;18.930;2023-01-23T17:35:37;46.53;39.16;65.72;;
76217;Laerm;65010;50.190;18.930;2023-01-23T17:38:44;48.84;39.27;66.67;;
76217;Laerm;65010;50.190;18.930;2023-01-23T17:41:50;46.41;38.78;63.45;;
76217;Laerm;65010;50.190;18.930;2023-01-23T17:45:00;49.58;38.62;66.49;;
76217;Laerm;65010;50.190;18.930;2023-01-23T17:48:12;46.75;38.80;64.36;;
76217;Laerm;65010;50.190;18.930;2023-01-23T17:51:21;46.05;39.01;63.98;;
76217;Laerm;65010;50.190;18.930;2023-01-23T17:54:27;48.43;38.79;64.93;;
76217;Laerm;65010;50.190;18.930;2023-01-23T17:57:35;47.06;38.83;64.35;;
76217;Laerm;65010;50.190;18.930;2023-01-23T18:00:48;47.93;38.94;67.59;;
76217;Laerm;65010;50.190;18.930;2023-01-23T18:03:56;45.70;39.07;66.60;;
76217;Laerm;65010;50.190;18.930;2023-01-23T18:07:01;45.56;39.08;63.02;;
76217;Laerm;65010;50.190;18.930;2023-01-23T18:10:10;48.07;38.96;69.59;;
76217;Laerm;65010;50.190;18.930;2023-01-23T18:13:26;45.64;39.14;62.91;;
76217;Laerm;65010;50.190;18.930;2023-01-23T18:16:52;45.04;38.98;67.36;;
76217;Laerm;65010;50.190;18.930;2023-01-23T18:20:18;45.29;39.20;67.05;;
76217;Laerm;65010;50.190;18.930;2023-01-23T18:23:40;48.77;39.21;68.20;;
76217;Laerm;65010;50.190;18.930;2023-01-23T18:26:58;44.46;38.97;63.91;;
76217;Laerm;65010;50.190;18.930;2023-01-23T18:30:38;46.45;37.65;68.45;;
76217;Laerm;65010;50.190;18.930;2023-01-23T18:34:10;46.63;38.75;67.35;;
76217;Laerm;65010;50.190;18.930;2023-01-23T18:37:48;48.05;39.17;68.92;;
76217;Laerm;65010;50.190;18.930;2023-01-23T18:41:17;47.00;38.92;67.46;;
76217;Laerm;65010;50.190;18.930;2023-01-23T18:44:31;48.16;38.39;63.70;;
76217;Laerm;65010;50.190;18.930;2023-01-23T18:47:42;47.63;37.23;64.92;;
76217;Laerm;65010;50.190;18.930;2023-01-23T18:51:08;43.27;39.33;61.27;;
76217;Laerm;65010;50.190;18.930;2023-01-23T18:54:40;44.77;39.09;61.32;;
76217;Laerm;65010;50.190;18.930;2023-01-23T18:58:22;46.70;39.18;66.65;;
76217;Laerm;65010;50.190;18.930;2023-01-23T19:01:51;45.21;38.94;66.62;;
76217;Laerm;65010;50.190;18.930;2023-01-23T19:05:27;41.56;38.86;55.54;;
76217;Laerm;65010;50.190;18.930;2023-01-23T19:08:38;47.02;39.40;66.29;;